Terminal Aerodrome Forecast
Issued by NWS Wilmington, OH

Current Version | Previous Version | Graphics & Text | Print | Product List | Glossary On
Versions: 1 2 3 4 5 6 7 8 9 10 11 12 13
582
FTUS41 KILN 171124
TAFILN
TAF
KILN 171124Z 1712/1812 26012G18KT P6SM OVC035
      TEMPO 1712/1715 OVC025
     FM171500 28016G25KT P6SM BKN040
     FM172100 28015KT P6SM SCT040
     FM180100 VRB04KT P6SM FEW060
     FM181000 14005KT P6SM OVC050=

USA.gov is the U.S. government's official web portal to all federal, state and local government web resources and services.